createdAt,value
2023-03-26T00:03:07.758Z,97688.84
2023-03-26T00:08:11.236Z,97689.09
2023-03-26T00:13:15.028Z,97703.34
2023-03-26T00:18:20.099Z,97697.47
2023-03-26T00:23:23.102Z,97698.44
2023-03-26T00:28:26.401Z,97705.81
2023-03-26T00:33:38.276Z,97691.47
2023-03-26T00:38:42.071Z,97691.72
2023-03-26T00:43:48.546Z,97693.41
2023-03-26T00:48:53.941Z,97689.09
2023-03-26T00:53:58.070Z,97685.56
2023-03-26T00:59:01.201Z,97672.19
2023-03-26T01:04:30.550Z,97674.97
2023-03-26T01:09:50.198Z,97663.75
2023-03-26T01:14:55.266Z,97656.06
2023-03-26T01:20:13.312Z,97654.28
2023-03-26T01:25:19.150Z,97650.34
2023-03-26T01:30:28.520Z,97643.88
2023-03-26T01:35:42.389Z,97648.50
2023-03-26T01:40:50.482Z,97629.34
2023-03-26T01:45:54.109Z,97631.00
2023-03-26T01:51:00.261Z,97619.22
2023-03-26T01:56:15.280Z,97621.31
2023-03-26T02:01:27.862Z,97620.00
2023-03-26T02:06:38.442Z,97619.56
2023-03-26T02:11:44.934Z,97613.41
2023-03-26T02:16:48.693Z,97595.84
2023-03-26T02:21:52.083Z,97591.66
2023-03-26T02:27:02.225Z,97574.19
2023-03-26T02:32:07.938Z,97568.06
2023-03-26T02:37:11.358Z,97562.06
2023-03-26T02:42:22.330Z,97557.03
2023-03-26T02:47:26.376Z,97563.59
2023-03-26T02:52:30.613Z,97562.63
2023-03-26T02:57:38.649Z,97554.28
2023-03-26T03:02:41.699Z,97544.28
2023-03-26T03:08:08.133Z,97545.69
2023-03-26T03:13:15.769Z,97534.81
2023-03-26T03:18:18.912Z,97534.66
2023-03-26T03:23:22.199Z,97525.63
2023-03-26T03:28:31.659Z,97522.69
2023-03-26T03:33:35.700Z,97508.34
2023-03-26T03:38:38.922Z,97504.56
2023-03-26T03:43:43.449Z,97495.50
2023-03-26T03:48:51.037Z,97500.38
2023-03-26T03:54:06.379Z,97491.75
2023-03-26T03:59:39.144Z,97487.00
2023-03-26T04:04:53.430Z,97477.94
2023-03-26T04:09:59.905Z,97473.59
2023-03-26T04:15:08.626Z,97465.22
2023-03-26T04:20:15.543Z,97454.06
2023-03-26T04:25:21.395Z,97450.56
2023-03-26T04:30:34.425Z,97440.81
2023-03-26T04:35:48.421Z,97430.50
2023-03-26T04:40:53.429Z,97424.72
2023-03-26T04:46:12.546Z,97414.56
2023-03-26T04:51:27.254Z,97404.25
2023-03-26T04:56:43.223Z,97395.44
2023-03-26T05:01:51.502Z,97390.13
2023-03-26T05:06:54.566Z,97379.69
2023-03-26T05:12:09.253Z,97370.34
2023-03-26T05:17:26.317Z,97356.81
2023-03-26T05:22:29.490Z,97339.34
2023-03-26T05:27:48.338Z,97335.88
2023-03-26T05:32:53.143Z,97324.44
2023-03-26T05:38:01.239Z,97313.84
2023-03-26T05:43:10.792Z,97318.03
2023-03-26T05:48:24.793Z,97303.81
2023-03-26T05:53:28.485Z,97290.94
2023-03-26T05:59:06.877Z,97283.69
2023-03-26T06:04:34.633Z,97274.38
2023-03-26T06:09:56.299Z,97262.91
2023-03-26T06:14:59.287Z,97255.81
2023-03-26T06:20:18.016Z,97248.69
2023-03-26T06:25:24.515Z,97239.91
2023-03-26T06:30:38.721Z,97236.69
2023-03-26T06:36:02.354Z,97231.28
2023-03-26T06:41:13.422Z,97232.94
2023-03-26T06:46:16.852Z,97235.03
2023-03-26T06:51:30.208Z,97216.47
2023-03-26T06:56:53.848Z,97215.09
2023-03-26T07:02:16.998Z,97213.66
2023-03-26T07:07:46.467Z,97208.50
2023-03-26T07:13:09.412Z,97200.00
2023-03-26T07:18:35.319Z,97200.13
2023-03-26T07:23:41.660Z,97187.94
2023-03-26T07:29:19.279Z,97185.28
2023-03-26T07:34:58.306Z,97179.31
2023-03-26T07:40:29.823Z,97176.41
2023-03-26T07:46:05.466Z,97168.88
2023-03-26T07:51:21.795Z,97167.91
2023-03-26T07:56:36.205Z,97167.78
2023-03-26T08:02:22.144Z,97156.63
2023-03-26T08:07:48.765Z,97149.41
2023-03-26T08:13:11.153Z,97131.78
2023-03-26T08:18:32.461Z,97118.28
2023-03-26T08:23:50.687Z,97126.25
2023-03-26T08:29:04.709Z,97128.34
2023-03-26T08:34:11.987Z,97107.03
2023-03-26T08:39:17.431Z,97106.25
2023-03-26T08:44:55.146Z,97102.63
2023-03-26T08:50:23.318Z,97099.28
2023-03-26T08:55:41.505Z,97097.78
2023-03-26T09:01:16.447Z,97096.66
2023-03-26T09:06:52.438Z,97094.00
2023-03-26T09:12:28.194Z,97087.72
2023-03-26T09:17:59.584Z,97093.88
2023-03-26T09:23:26.480Z,97079.31
2023-03-26T09:29:03.436Z,97068.22
2023-03-26T09:34:29.367Z,97052.06
2023-03-26T09:39:49.732Z,97049.22
2023-03-26T09:45:23.642Z,97034.13
2023-03-26T09:50:42.559Z,97025.56
2023-03-26T09:56:09.953Z,97019.06
2023-03-26T10:01:26.467Z,97013.66
2023-03-26T10:06:52.227Z,97015.94
2023-03-26T10:12:12.544Z,97009.50
2023-03-26T10:17:38.458Z,97002.13
2023-03-26T10:22:55.563Z,96997.25
2023-03-26T10:28:09.350Z,97000.31
2023-03-26T10:33:31.102Z,97003.56
2023-03-26T10:38:50.532Z,97006.22
2023-03-26T10:44:23.600Z,96996.38
2023-03-26T10:49:52.217Z,96994.00
2023-03-26T10:55:03.582Z,96987.25
2023-03-26T11:00:23.300Z,96984.66
2023-03-26T11:05:45.711Z,96980.75
2023-03-26T11:10:55.747Z,96973.00
2023-03-26T11:16:06.019Z,96967.66
2023-03-26T11:21:19.573Z,96960.69
2023-03-26T11:26:30.431Z,96951.38
2023-03-26T11:31:51.107Z,96951.38
2023-03-26T11:36:58.602Z,96955.00
2023-03-26T11:42:08.482Z,96950.13
2023-03-26T11:47:24.660Z,96948.69
2023-03-26T11:52:28.959Z,96938.13
2023-03-26T11:57:37.628Z,96939.59
2023-03-26T12:02:47.797Z,96925.47
2023-03-26T12:07:55.899Z,96920.06
2023-03-26T12:13:05.771Z,96916.78
2023-03-26T12:18:25.769Z,96902.47
2023-03-26T12:23:39.649Z,96898.47
2023-03-26T12:28:48.272Z,96880.19
2023-03-26T12:34:10.155Z,96875.53
2023-03-26T12:40:09.141Z,96855.88
2023-03-26T12:45:01.012Z,96852.13
2023-03-26T12:50:09.618Z,96846.88
2023-03-26T12:55:30.069Z,96853.34
2023-03-26T13:00:45.675Z,96848.03
2023-03-26T13:06:00.463Z,96849.34
2023-03-26T13:11:10.961Z,96835.53
2023-03-26T13:16:23.452Z,96836.69
2023-03-26T13:21:37.474Z,96822.69
2023-03-26T13:26:55.258Z,96824.16
2023-03-26T13:32:07.164Z,96818.78
2023-03-26T13:37:20.096Z,96847.22
2023-03-26T13:42:40.183Z,96872.16
2023-03-26T13:47:47.957Z,96877.06
2023-03-26T13:52:57.329Z,96903.00
2023-03-26T13:58:07.250Z,96892.59
2023-03-26T14:03:20.690Z,96867.00
2023-03-26T14:08:32.723Z,96852.94
2023-03-26T14:13:43.692Z,96852.28
2023-03-26T14:18:55.196Z,96852.25
2023-03-26T14:24:12.831Z,96856.66
2023-03-26T14:29:31.783Z,96857.66
2023-03-26T14:34:51.772Z,96871.63
2023-03-26T14:40:24.837Z,96884.50
2023-03-26T14:45:54.970Z,96878.59
2023-03-26T14:51:08.926Z,96896.66
2023-03-26T14:56:39.741Z,96900.16
2023-03-26T15:02:20.329Z,96907.31
2023-03-26T15:07:58.908Z,96901.22
2023-03-26T15:13:32.779Z,96897.59
2023-03-26T15:19:05.579Z,96904.34
2023-03-26T15:24:34.024Z,96908.50
2023-03-26T15:30:25.054Z,96914.66
2023-03-26T15:35:57.765Z,96916.13
2023-03-26T15:41:17.519Z,96921.34
2023-03-26T15:46:33.891Z,96919.38
2023-03-26T15:51:49.529Z,96925.91
2023-03-26T15:57:01.915Z,96925.34
2023-03-26T16:02:19.934Z,96928.94
2023-03-26T16:07:47.210Z,96937.75
2023-03-26T16:13:15.577Z,96939.66
2023-03-26T16:18:30.984Z,96946.44
2023-03-26T16:23:53.773Z,96946.88
2023-03-26T16:29:19.112Z,96943.38
2023-03-26T16:34:31.776Z,96949.66
2023-03-26T16:39:43.613Z,96962.25
2023-03-26T16:45:07.556Z,96964.53
2023-03-26T16:50:25.968Z,96969.75
2023-03-26T16:55:41.599Z,96970.44
2023-03-26T17:00:49.224Z,96984.97
2023-03-26T17:06:06.851Z,96981.16
2023-03-26T17:11:23.164Z,96993.91
2023-03-26T17:16:33.454Z,97000.81
2023-03-26T17:21:49.295Z,97015.47
2023-03-26T17:27:00.967Z,97017.75
2023-03-26T17:32:09.791Z,97026.50
2023-03-26T17:37:28.935Z,97041.22
2023-03-26T17:42:33.086Z,97041.09
2023-03-26T17:47:40.516Z,97039.19
2023-03-26T17:52:57.376Z,97051.34
2023-03-26T17:58:04.869Z,97058.88
2023-03-26T18:03:12.676Z,97059.91
2023-03-26T18:08:50.681Z,97059.47
2023-03-26T18:14:23.107Z,97072.03
2023-03-26T18:19:32.956Z,97076.81
2023-03-26T18:24:42.144Z,97086.72
2023-03-26T18:29:47.905Z,97097.31
2023-03-26T18:34:56.964Z,97100.25
2023-03-26T18:40:10.214Z,97104.00
2023-03-26T18:45:25.895Z,97113.03
2023-03-26T18:50:36.755Z,97130.63
2023-03-26T18:55:50.499Z,97130.19
2023-03-26T19:00:59.142Z,97137.59
2023-03-26T19:06:04.947Z,97146.94
2023-03-26T19:11:12.908Z,97149.84
2023-03-26T19:16:23.343Z,97168.09
2023-03-26T19:21:26.685Z,97172.69
2023-03-26T19:26:36.716Z,97185.25
2023-03-26T19:31:40.386Z,97188.03
2023-03-26T19:36:58.894Z,97204.22
2023-03-26T19:42:07.109Z,97206.00
2023-03-26T19:47:29.123Z,97226.34
2023-03-26T19:52:41.167Z,97230.09
2023-03-26T19:57:46.176Z,97235.66
2023-03-26T20:02:49.290Z,97241.34
2023-03-26T20:07:55.741Z,97250.28
2023-03-26T20:13:00.967Z,97260.03
2023-03-26T20:18:04.979Z,97268.38
2023-03-26T20:23:15.007Z,97283.44
2023-03-26T20:28:20.609Z,97294.00
2023-03-26T20:33:26.639Z,97297.75
2023-03-26T20:38:38.927Z,97303.59
2023-03-26T20:43:44.109Z,97317.09
2023-03-26T20:48:48.055Z,97325.41
2023-03-26T20:53:51.249Z,97338.47
2023-03-26T20:59:09.846Z,97342.47
2023-03-26T21:04:14.799Z,97359.09
2023-03-26T21:09:24.162Z,97364.75
2023-03-26T21:14:32.685Z,97376.13
2023-03-26T21:19:38.067Z,97390.69
2023-03-26T21:24:50.698Z,97404.09
2023-03-26T21:30:03.838Z,97417.09
2023-03-26T21:35:08.445Z,97432.63
2023-03-26T21:40:16.979Z,97432.03
2023-03-26T21:45:24.347Z,97447.28
2023-03-26T21:50:28.004Z,97460.66
2023-03-26T21:55:40.680Z,97469.06
2023-03-26T22:00:58.001Z,97475.69
2023-03-26T22:06:08.266Z,97487.31
2023-03-26T22:11:12.695Z,97492.03
2023-03-26T22:16:17.488Z,97499.72
2023-03-26T22:21:23.353Z,97520.16
2023-03-26T22:26:28.246Z,97528.16
2023-03-26T22:31:34.740Z,97533.22
2023-03-26T22:36:39.878Z,97546.19
2023-03-26T22:41:43.246Z,97567.53
2023-03-26T22:46:49.113Z,97572.41
2023-03-26T22:51:53.521Z,97593.38
2023-03-26T22:56:56.602Z,97614.22
2023-03-26T23:02:02.870Z,97635.31
2023-03-26T23:07:06.158Z,97654.38
2023-03-26T23:12:09.150Z,97669.34
2023-03-26T23:17:14.591Z,97686.47
2023-03-26T23:22:18.004Z,97711.06
2023-03-26T23:27:22.656Z,97713.06
2023-03-26T23:32:28.002Z,97730.47
2023-03-26T23:37:34.774Z,97743.53
2023-03-26T23:42:38.259Z,97747.09
2023-03-26T23:47:43.044Z,97757.47
2023-03-26T23:52:46.943Z,97766.75
2023-03-26T23:57:51.773Z,97785.78
